createdAt,value
2023-01-27T00:01:39.772Z,2.42
2023-01-27T00:04:08.141Z,2.65
2023-01-27T00:06:36.662Z,2.42
2023-01-27T00:09:05.200Z,2.10
2023-01-27T00:11:52.107Z,2.60
2023-01-27T00:14:20.397Z,2.28
2023-01-27T00:16:48.746Z,2.13
2023-01-27T00:19:19.701Z,2.70
2023-01-27T00:22:14.213Z,2.90
2023-01-27T00:24:43.461Z,3.13
2023-01-27T00:27:13.504Z,3.67
2023-01-27T00:29:41.870Z,4.13
2023-01-27T00:32:28.629Z,3.50
2023-01-27T00:34:56.943Z,3.10
2023-01-27T00:37:25.267Z,3.60
2023-01-27T00:39:53.554Z,3.20
2023-01-27T00:42:23.225Z,3.42
2023-01-27T00:45:05.525Z,3.10
2023-01-27T00:47:34.212Z,3.05
2023-01-27T00:50:02.672Z,3.22
2023-01-27T00:52:31.054Z,3.17
2023-01-27T00:54:59.456Z,3.00
2023-01-27T00:57:29.170Z,3.70
2023-01-27T00:59:59.716Z,4.38
2023-01-27T01:02:28.359Z,4.47
2023-01-27T01:04:57.127Z,4.18
2023-01-27T01:07:26.124Z,4.40
2023-01-27T01:09:54.834Z,5.38
2023-01-27T01:12:23.775Z,5.82
2023-01-27T01:14:53.675Z,5.03
2023-01-27T01:17:23.452Z,4.97
2023-01-27T01:19:51.777Z,5.18
2023-01-27T01:22:20.391Z,5.10
2023-01-27T01:24:48.936Z,4.72
2023-01-27T01:27:17.364Z,4.82
2023-01-27T01:29:45.913Z,4.78
2023-01-27T01:32:15.609Z,5.00
2023-01-27T01:34:44.802Z,4.75
2023-01-27T01:37:13.134Z,5.00
2023-01-27T01:39:42.899Z,5.20
2023-01-27T01:42:11.258Z,4.40
2023-01-27T01:44:45.120Z,5.15
2023-01-27T01:47:18.083Z,5.35
2023-01-27T01:49:48.510Z,4.90
2023-01-27T01:52:21.962Z,5.18
2023-01-27T01:54:53.057Z,5.00
2023-01-27T01:57:24.758Z,5.20
2023-01-27T01:59:59.113Z,5.47
2023-01-27T02:02:30.252Z,4.85
2023-01-27T02:05:03.665Z,5.97
2023-01-27T02:07:36.781Z,5.85
2023-01-27T02:10:05.876Z,6.05
2023-01-27T02:12:37.266Z,6.28
2023-01-27T02:15:11.297Z,6.43
2023-01-27T02:17:41.370Z,7.18
2023-01-27T02:20:19.522Z,7.88
2023-01-27T02:22:54.308Z,6.93
2023-01-27T02:25:30.462Z,7.55
2023-01-27T02:28:00.262Z,7.55
2023-01-27T02:30:29.155Z,7.35
2023-01-27T02:32:57.555Z,6.00
2023-01-27T02:35:34.042Z,5.53
2023-01-27T02:38:02.552Z,4.80
2023-01-27T02:40:33.393Z,4.85
2023-01-27T02:43:05.422Z,4.70
2023-01-27T02:45:33.806Z,4.60
2023-01-27T02:48:02.233Z,5.22
2023-01-27T02:50:30.700Z,4.57
2023-01-27T02:53:00.500Z,5.20
2023-01-27T02:55:28.867Z,5.53
2023-01-27T02:57:58.019Z,5.15
2023-01-27T03:00:48.671Z,5.97
2023-01-27T03:03:17.171Z,5.43
2023-01-27T03:05:46.227Z,5.45
2023-01-27T03:08:14.850Z,5.70
2023-01-27T03:10:44.305Z,5.53
2023-01-27T03:13:12.755Z,5.55
2023-01-27T03:15:59.011Z,5.32
2023-01-27T03:18:28.920Z,5.68
2023-01-27T03:21:03.145Z,5.32
2023-01-27T03:23:36.334Z,4.88
2023-01-27T03:26:10.367Z,5.18
2023-01-27T03:29:03.394Z,4.60
2023-01-27T03:31:34.829Z,5.22
2023-01-27T03:34:09.046Z,4.45
2023-01-27T03:37:05.802Z,5.25
2023-01-27T03:39:51.895Z,4.90
2023-01-27T03:42:37.787Z,4.70
2023-01-27T03:45:25.068Z,5.13
2023-01-27T03:47:53.426Z,5.03
2023-01-27T03:50:31.211Z,4.50
2023-01-27T03:53:04.016Z,4.57
2023-01-27T03:55:33.050Z,4.20
2023-01-27T03:58:14.494Z,3.85
2023-01-27T04:00:42.979Z,4.50
2023-01-27T04:03:31.612Z,4.30
2023-01-27T04:06:21.610Z,4.28
2023-01-27T04:08:50.001Z,4.88
2023-01-27T04:11:36.115Z,4.65
2023-01-27T04:14:05.908Z,4.75
2023-01-27T04:16:37.730Z,4.57
2023-01-27T04:19:07.880Z,4.30
2023-01-27T04:21:37.923Z,4.85
2023-01-27T04:24:18.133Z,4.85
2023-01-27T04:26:47.049Z,4.75
2023-01-27T04:29:15.734Z,5.10
2023-01-27T04:31:44.113Z,5.50
2023-01-27T04:34:13.754Z,5.72
2023-01-27T04:36:43.672Z,4.85
2023-01-27T04:39:14.806Z,5.70
2023-01-27T04:41:44.034Z,5.32
2023-01-27T04:44:12.967Z,5.45
2023-01-27T04:46:41.584Z,5.97
2023-01-27T04:49:10.066Z,5.00
2023-01-27T04:51:39.023Z,6.15
2023-01-27T04:54:08.926Z,6.55
2023-01-27T04:56:38.830Z,6.55
2023-01-27T04:59:09.198Z,6.15
2023-01-27T05:01:37.561Z,5.65
2023-01-27T05:04:06.055Z,5.55
2023-01-27T05:06:34.888Z,5.45
2023-01-27T05:09:03.752Z,6.55
2023-01-27T05:11:33.402Z,6.45
2023-01-27T05:14:01.739Z,6.15
2023-01-27T05:16:33.940Z,5.28
2023-01-27T05:19:02.640Z,6.55
2023-01-27T05:21:31.132Z,6.60
2023-01-27T05:23:59.566Z,5.90
2023-01-27T05:26:29.261Z,6.18
2023-01-27T05:28:59.580Z,6.45
2023-01-27T05:31:29.894Z,6.20
2023-01-27T05:34:00.523Z,6.47
2023-01-27T05:36:30.683Z,7.03
2023-01-27T05:39:00.320Z,23.60
2023-01-27T05:41:30.989Z,10.95
2023-01-27T05:44:01.094Z,16.27
2023-01-27T05:46:33.702Z,9.75
2023-01-27T05:49:05.170Z,9.48
2023-01-27T05:51:37.410Z,7.70
2023-01-27T05:54:09.999Z,7.53
2023-01-27T05:56:40.792Z,7.72
2023-01-27T05:59:13.001Z,7.45
2023-01-27T06:01:41.472Z,7.05
2023-01-27T06:04:13.894Z,6.80
2023-01-27T06:06:42.221Z,7.10
2023-01-27T06:09:13.973Z,6.82
2023-01-27T06:11:42.365Z,7.43
2023-01-27T06:14:14.201Z,6.15
2023-01-27T06:16:47.205Z,7.00
2023-01-27T06:19:15.716Z,6.75
2023-01-27T06:21:46.277Z,6.05
2023-01-27T06:24:14.647Z,7.45
2023-01-27T06:26:43.018Z,6.72
2023-01-27T06:29:14.252Z,5.85
2023-01-27T06:31:42.674Z,6.00
2023-01-27T06:34:11.114Z,5.78
2023-01-27T06:36:39.446Z,5.93
2023-01-27T06:39:07.979Z,5.45
2023-01-27T06:41:36.341Z,5.68
2023-01-27T06:44:04.653Z,5.38
2023-01-27T06:46:34.413Z,4.43
2023-01-27T06:49:02.834Z,5.68
2023-01-27T06:51:33.767Z,5.97
2023-01-27T06:54:02.088Z,5.10
2023-01-27T06:56:30.520Z,5.32
2023-01-27T06:58:58.853Z,5.15
2023-01-27T07:01:28.260Z,5.65
2023-01-27T07:04:01.000Z,6.80
2023-01-27T07:06:31.835Z,5.22
2023-01-27T07:09:02.977Z,5.85
2023-01-27T07:11:31.359Z,5.72
2023-01-27T07:14:10.457Z,4.72
2023-01-27T07:16:39.031Z,5.28
2023-01-27T07:19:08.831Z,5.18
2023-01-27T07:21:37.473Z,4.63
2023-01-27T07:24:09.795Z,5.32
2023-01-27T07:26:38.218Z,6.05
2023-01-27T07:29:06.599Z,6.13
2023-01-27T07:31:35.208Z,6.15
2023-01-27T07:34:08.027Z,6.35
2023-01-27T07:36:36.369Z,6.97
2023-01-27T07:39:07.410Z,5.72
2023-01-27T07:41:35.746Z,6.15
2023-01-27T07:44:04.217Z,6.53
2023-01-27T07:46:35.561Z,5.95
2023-01-27T07:49:05.932Z,6.40
2023-01-27T07:51:37.996Z,6.10
2023-01-27T07:54:06.728Z,6.20
2023-01-27T07:56:36.353Z,6.32
2023-01-27T07:59:07.215Z,5.53
2023-01-27T08:01:35.561Z,5.65
2023-01-27T08:04:04.034Z,5.30
2023-01-27T08:06:34.670Z,5.97
2023-01-27T08:09:05.396Z,5.78
2023-01-27T08:11:34.260Z,5.97
2023-01-27T08:14:04.881Z,5.32
2023-01-27T08:16:33.260Z,5.60
2023-01-27T08:19:01.693Z,5.50
2023-01-27T08:21:32.887Z,5.93
2023-01-27T08:24:01.748Z,5.78
2023-01-27T08:26:31.536Z,5.32
2023-01-27T08:28:59.889Z,5.93
2023-01-27T08:31:28.313Z,5.28
2023-01-27T08:33:56.667Z,5.15
2023-01-27T08:36:25.604Z,5.70
2023-01-27T08:38:54.306Z,6.03
2023-01-27T08:41:27.887Z,5.68
2023-01-27T08:44:00.676Z,7.18
2023-01-27T08:46:30.767Z,6.47
2023-01-27T08:49:00.966Z,5.80
2023-01-27T08:51:32.065Z,6.28
2023-01-27T08:54:08.016Z,5.38
2023-01-27T08:56:36.489Z,6.00
2023-01-27T08:59:09.293Z,5.60
2023-01-27T09:01:41.683Z,6.45
2023-01-27T09:04:11.686Z,5.65
2023-01-27T09:06:40.378Z,5.47
2023-01-27T09:09:12.349Z,6.10
2023-01-27T09:11:43.582Z,6.40
2023-01-27T09:14:13.856Z,6.18
2023-01-27T09:16:42.342Z,5.93
2023-01-27T09:19:10.867Z,6.47
2023-01-27T09:21:39.559Z,6.47
2023-01-27T09:24:08.086Z,6.88
2023-01-27T09:26:36.620Z,7.30
2023-01-27T09:29:05.097Z,6.05
2023-01-27T09:31:34.925Z,6.13
2023-01-27T09:34:04.612Z,7.25
2023-01-27T09:36:34.892Z,6.95
2023-01-27T09:39:07.797Z,7.70
2023-01-27T09:42:08.216Z,7.22
2023-01-27T09:45:14.883Z,8.05
2023-01-27T09:48:04.128Z,7.32
2023-01-27T09:50:44.329Z,7.78
2023-01-27T09:53:42.997Z,9.77
2023-01-27T09:56:20.360Z,8.43
2023-01-27T09:59:04.664Z,10.75
2023-01-27T10:01:43.631Z,8.40
2023-01-27T10:04:44.723Z,9.57
2023-01-27T10:07:28.688Z,9.18
2023-01-27T10:10:11.690Z,8.32
2023-01-27T10:12:59.903Z,7.93
2023-01-27T10:15:41.319Z,9.00
2023-01-27T10:18:24.003Z,9.40
2023-01-27T10:21:04.096Z,13.35
2023-01-27T10:23:45.618Z,9.13
2023-01-27T10:26:24.147Z,8.75
2023-01-27T10:28:58.925Z,8.93
2023-01-27T10:31:32.619Z,9.23
2023-01-27T10:34:09.926Z,8.80
2023-01-27T10:36:48.085Z,7.88
2023-01-27T10:39:27.149Z,7.57
2023-01-27T10:42:06.168Z,7.15
2023-01-27T10:44:53.541Z,7.13
2023-01-27T10:47:35.690Z,6.93
2023-01-27T10:50:11.231Z,8.10
2023-01-27T10:52:46.777Z,7.53
2023-01-27T10:55:21.819Z,7.93
2023-01-27T10:57:58.584Z,6.68
2023-01-27T11:01:04.610Z,7.43
2023-01-27T11:03:28.681Z,6.57
2023-01-27T11:06:00.545Z,7.15
2023-01-27T11:08:35.821Z,7.15
2023-01-27T11:11:25.779Z,7.47
2023-01-27T11:14:02.658Z,6.53
2023-01-27T11:16:35.556Z,7.70
2023-01-27T11:19:14.588Z,9.43
2023-01-27T11:21:55.421Z,10.52
2023-01-27T11:24:42.327Z,7.30
2023-01-27T11:27:20.759Z,6.57
2023-01-27T11:29:56.402Z,5.82
2023-01-27T11:32:37.608Z,6.72
2023-01-27T11:35:11.020Z,7.28
2023-01-27T11:37:41.579Z,6.80
2023-01-27T11:40:22.690Z,7.88
2023-01-27T11:42:52.032Z,7.07
2023-01-27T11:45:22.357Z,8.60
2023-01-27T11:47:53.877Z,8.40
2023-01-27T11:50:25.021Z,7.10
2023-01-27T11:52:59.860Z,7.88
2023-01-27T11:55:37.357Z,7.35
2023-01-27T11:58:14.948Z,7.20
2023-01-27T12:00:47.548Z,7.50
2023-01-27T12:03:24.312Z,7.95
2023-01-27T12:05:56.476Z,6.90
2023-01-27T12:08:39.438Z,7.22
2023-01-27T12:11:26.490Z,6.45
2023-01-27T12:13:57.412Z,6.93
2023-01-27T12:16:43.339Z,6.60
2023-01-27T12:19:24.769Z,5.47
2023-01-27T12:21:57.041Z,5.75
2023-01-27T12:24:29.300Z,7.40
2023-01-27T12:27:00.351Z,6.82
2023-01-27T12:29:38.956Z,6.68
2023-01-27T12:32:16.305Z,6.80
2023-01-27T12:34:46.769Z,7.18
2023-01-27T12:37:23.038Z,7.25
2023-01-27T12:39:57.283Z,9.10
2023-01-27T12:42:38.646Z,8.05
2023-01-27T12:45:21.075Z,6.47
2023-01-27T12:48:03.740Z,9.77
2023-01-27T12:50:33.924Z,8.18
2023-01-27T12:53:06.756Z,7.53
2023-01-27T12:55:36.901Z,6.97
2023-01-27T12:58:06.957Z,7.18
2023-01-27T13:00:35.797Z,6.82
2023-01-27T13:03:07.958Z,7.13
2023-01-27T13:05:39.139Z,8.07
2023-01-27T13:08:14.015Z,7.28
2023-01-27T13:10:51.489Z,6.50
2023-01-27T13:13:25.902Z,5.78
2023-01-27T13:15:57.764Z,5.50
2023-01-27T13:18:26.502Z,5.32
2023-01-27T13:21:00.139Z,5.68
2023-01-27T13:23:32.817Z,5.90
2023-01-27T13:26:11.401Z,5.28
2023-01-27T13:28:52.928Z,6.30
2023-01-27T13:31:36.684Z,6.10
2023-01-27T13:34:12.782Z,4.97
2023-01-27T13:36:45.457Z,5.20
2023-01-27T13:39:19.833Z,4.55
2023-01-27T13:41:55.114Z,4.93
2023-01-27T13:44:31.188Z,3.97
2023-01-27T13:47:05.397Z,3.80
2023-01-27T13:49:38.854Z,3.55
2023-01-27T13:52:08.015Z,3.22
2023-01-27T13:54:36.418Z,3.40
2023-01-27T13:57:32.666Z,3.60
2023-01-27T14:00:12.487Z,3.92
2023-01-27T14:02:58.948Z,3.38
2023-01-27T14:05:42.277Z,3.67
2023-01-27T14:08:37.954Z,3.17
2023-01-27T14:11:17.842Z,3.45
2023-01-27T14:14:00.194Z,3.78
2023-01-27T14:16:41.769Z,6.70
2023-01-27T14:19:20.986Z,5.05
2023-01-27T14:21:54.908Z,4.00
2023-01-27T14:24:35.314Z,5.72
2023-01-27T14:27:11.523Z,15.35
2023-01-27T14:29:48.304Z,16.65
2023-01-27T14:32:28.331Z,9.02
2023-01-27T14:35:15.812Z,7.07
2023-01-27T14:37:52.533Z,5.47
2023-01-27T14:40:27.129Z,5.55
2023-01-27T14:43:07.928Z,4.32
2023-01-27T14:45:38.877Z,4.22
2023-01-27T14:48:32.425Z,4.00
2023-01-27T14:51:09.638Z,3.60
2023-01-27T14:53:52.705Z,3.65
2023-01-27T14:56:29.692Z,3.22
2023-01-27T14:59:07.504Z,3.78
2023-01-27T15:01:45.259Z,3.00
2023-01-27T15:04:49.190Z,3.60
2023-01-27T15:07:25.251Z,3.63
2023-01-27T15:10:21.636Z,4.25
2023-01-27T15:13:34.577Z,5.70
2023-01-27T15:16:37.170Z,4.10
2023-01-27T15:19:35.467Z,4.10
2023-01-27T15:22:21.523Z,4.13
2023-01-27T15:25:00.270Z,3.78
2023-01-27T15:27:29.841Z,4.00
2023-01-27T15:30:06.083Z,4.07
2023-01-27T15:32:38.508Z,4.25
2023-01-27T15:35:36.119Z,4.05
2023-01-27T15:38:34.751Z,3.58
2023-01-27T15:41:09.705Z,3.38
2023-01-27T15:44:02.347Z,3.10
2023-01-27T15:46:34.342Z,3.95
2023-01-27T15:49:05.366Z,3.10
2023-01-27T15:51:37.694Z,3.15
2023-01-27T15:54:16.267Z,2.88
2023-01-27T15:56:48.714Z,3.38
2023-01-27T15:59:21.714Z,3.00
2023-01-27T16:02:00.285Z,4.72
2023-01-27T16:04:32.121Z,4.22
2023-01-27T16:07:03.517Z,4.28
2023-01-27T16:09:40.883Z,3.97
2023-01-27T16:12:32.077Z,4.85
2023-01-27T16:15:38.917Z,3.78
2023-01-27T16:18:26.716Z,4.05
2023-01-27T16:21:06.480Z,3.60
2023-01-27T16:23:43.738Z,3.13
2023-01-27T16:26:23.633Z,3.13
2023-01-27T16:28:56.600Z,3.88
2023-01-27T16:31:29.026Z,3.50
2023-01-27T16:34:01.160Z,3.90
2023-01-27T16:36:31.551Z,3.92
2023-01-27T16:39:22.405Z,3.88
2023-01-27T16:41:58.375Z,3.22
2023-01-27T16:44:31.187Z,3.72
2023-01-27T16:47:14.958Z,3.72
2023-01-27T16:52:21.096Z,3.90
2023-01-27T16:54:56.016Z,3.20
2023-01-27T17:00:09.060Z,3.08
2023-01-27T17:02:37.564Z,2.97
2023-01-27T17:05:14.710Z,3.40
2023-01-27T17:08:01.707Z,2.40
2023-01-27T17:10:34.682Z,2.72
2023-01-27T17:13:05.043Z,2.80
2023-01-27T17:15:39.483Z,3.00
2023-01-27T17:18:11.568Z,2.60
2023-01-27T17:20:43.675Z,3.75
2023-01-27T17:23:23.030Z,6.40
2023-01-27T17:25:53.946Z,4.35
2023-01-27T17:28:27.881Z,4.45
2023-01-27T17:31:07.397Z,3.92
2023-01-27T17:33:37.864Z,4.00
2023-01-27T17:36:11.701Z,4.00
2023-01-27T17:38:46.290Z,4.03
2023-01-27T17:41:27.193Z,3.83
2023-01-27T17:44:01.306Z,4.57
2023-01-27T17:46:32.903Z,4.35
2023-01-27T17:49:04.896Z,4.00
2023-01-27T17:51:38.571Z,5.70
2023-01-27T17:54:19.371Z,9.48
2023-01-27T17:56:49.884Z,8.25
2023-01-27T17:59:23.147Z,7.13
2023-01-27T18:01:55.005Z,15.55
2023-01-27T18:04:24.981Z,8.32
2023-01-27T18:06:53.923Z,9.77
2023-01-27T18:09:26.554Z,7.68
2023-01-27T18:11:58.378Z,6.60
2023-01-27T18:14:34.041Z,6.15
2023-01-27T18:17:04.753Z,6.00
2023-01-27T18:19:34.114Z,6.43
2023-01-27T18:22:15.478Z,6.15
2023-01-27T18:24:51.021Z,5.63
2023-01-27T18:27:28.801Z,5.38
2023-01-27T18:30:02.614Z,5.93
2023-01-27T18:32:39.453Z,5.32
2023-01-27T18:35:24.769Z,4.85
2023-01-27T18:37:56.828Z,4.90
2023-01-27T18:40:31.039Z,5.13
2023-01-27T18:43:00.125Z,6.30
2023-01-27T18:45:30.123Z,4.75
2023-01-27T18:47:59.549Z,4.60
2023-01-27T18:50:29.279Z,4.30
2023-01-27T18:52:57.701Z,4.97
2023-01-27T18:55:27.877Z,4.88
2023-01-27T18:57:58.386Z,4.30
2023-01-27T19:00:31.716Z,4.30
2023-01-27T19:03:01.248Z,4.20
2023-01-27T19:05:32.059Z,5.35
2023-01-27T19:08:01.051Z,6.18
2023-01-27T19:10:31.273Z,5.07
2023-01-27T19:13:01.186Z,4.50
2023-01-27T19:15:33.798Z,4.57
2023-01-27T19:18:08.195Z,4.63
2023-01-27T19:20:36.632Z,4.20
2023-01-27T19:23:05.001Z,4.72
2023-01-27T19:25:33.398Z,5.32
2023-01-27T19:28:05.388Z,4.32
2023-01-27T19:30:37.174Z,4.57
2023-01-27T19:33:16.372Z,5.07
2023-01-27T19:35:47.507Z,5.40
2023-01-27T19:38:16.013Z,4.97
2023-01-27T19:40:44.456Z,4.40
2023-01-27T19:43:14.794Z,5.75
2023-01-27T19:45:46.681Z,5.07
2023-01-27T19:48:17.915Z,5.25
2023-01-27T19:50:46.600Z,5.05
2023-01-27T19:53:16.173Z,4.80
2023-01-27T19:55:45.427Z,5.28
2023-01-27T19:58:22.332Z,5.38
2023-01-27T20:00:52.673Z,4.82
2023-01-27T20:03:21.250Z,4.78
2023-01-27T20:05:49.727Z,5.13
2023-01-27T20:08:20.309Z,5.63
2023-01-27T20:10:48.664Z,5.30
2023-01-27T20:13:19.331Z,4.78
2023-01-27T20:15:48.474Z,4.70
2023-01-27T20:18:20.384Z,6.38
2023-01-27T20:20:50.480Z,18.42
2023-01-27T20:23:18.886Z,6.95
2023-01-27T20:25:47.323Z,7.28
2023-01-27T20:28:15.721Z,6.38
2023-01-27T20:30:44.218Z,5.20
2023-01-27T20:33:14.726Z,5.07
2023-01-27T20:35:44.504Z,4.32
2023-01-27T20:38:12.908Z,4.50
2023-01-27T20:40:41.326Z,3.78
2023-01-27T20:43:09.752Z,3.70
2023-01-27T20:45:39.178Z,9.63
2023-01-27T20:48:07.573Z,6.20
2023-01-27T20:50:35.924Z,4.50
2023-01-27T20:53:05.757Z,4.55
2023-01-27T20:55:34.146Z,6.30
2023-01-27T20:58:02.555Z,4.10
2023-01-27T21:00:30.936Z,5.05
2023-01-27T21:02:59.310Z,4.18
2023-01-27T21:05:27.708Z,3.83
2023-01-27T21:07:56.088Z,3.30
2023-01-27T21:10:25.807Z,3.15
2023-01-27T21:12:54.197Z,3.90
2023-01-27T21:15:22.558Z,4.25
2023-01-27T21:17:51.247Z,3.90
2023-01-27T21:20:19.794Z,3.70
2023-01-27T21:22:48.345Z,4.10
2023-01-27T21:25:17.088Z,3.75
2023-01-27T21:27:48.022Z,4.68
2023-01-27T21:30:16.661Z,4.53
2023-01-27T21:32:45.047Z,4.85
2023-01-27T21:35:13.944Z,4.97
2023-01-27T21:37:42.816Z,3.90
2023-01-27T21:40:12.572Z,3.75
2023-01-27T21:42:58.381Z,3.63
2023-01-27T21:45:28.705Z,3.47
2023-01-27T21:47:57.061Z,3.95
2023-01-27T21:50:25.474Z,4.00
2023-01-27T21:52:53.919Z,4.22
2023-01-27T21:55:23.907Z,3.83
2023-01-27T21:57:54.434Z,4.65
2023-01-27T22:00:24.621Z,5.40
2023-01-27T22:02:59.022Z,3.92
2023-01-27T22:05:28.501Z,4.03
2023-01-27T22:07:57.344Z,4.13
2023-01-27T22:10:28.892Z,5.15
2023-01-27T22:12:58.684Z,5.47
2023-01-27T22:15:29.497Z,6.75
2023-01-27T22:18:00.000Z,5.90
2023-01-27T22:20:29.471Z,5.30
2023-01-27T22:22:57.873Z,6.15
2023-01-27T22:25:27.365Z,6.50
2023-01-27T22:27:56.178Z,5.63
2023-01-27T22:30:24.929Z,4.60
2023-01-27T22:32:53.504Z,6.88
2023-01-27T22:35:23.272Z,5.88
2023-01-27T22:37:52.998Z,6.82
2023-01-27T22:40:21.507Z,5.82
2023-01-27T22:42:50.440Z,6.57
2023-01-27T22:45:19.095Z,5.80
2023-01-27T22:47:49.343Z,5.60
2023-01-27T22:50:18.321Z,5.32
2023-01-27T22:52:48.090Z,5.07
2023-01-27T22:55:16.791Z,6.85
2023-01-27T22:57:45.841Z,7.13
2023-01-27T23:00:14.845Z,6.18
2023-01-27T23:02:43.329Z,5.28
2023-01-27T23:05:11.790Z,5.95
2023-01-27T23:07:40.229Z,5.57
2023-01-27T23:10:11.330Z,5.05
2023-01-27T23:12:39.704Z,5.78
2023-01-27T23:15:09.265Z,5.25
2023-01-27T23:17:37.677Z,5.95
2023-01-27T23:20:07.212Z,6.35
2023-01-27T23:22:35.660Z,5.03
2023-01-27T23:25:04.053Z,5.65
2023-01-27T23:27:34.128Z,6.22
2023-01-27T23:30:04.578Z,5.10
2023-01-27T23:32:32.878Z,5.38
2023-01-27T23:35:02.456Z,5.75
2023-01-27T23:37:30.900Z,5.50
2023-01-27T23:39:59.430Z,4.63
2023-01-27T23:42:27.863Z,5.15
2023-01-27T23:44:57.641Z,5.53
2023-01-27T23:47:26.070Z,4.93
2023-01-27T23:49:54.659Z,4.10
2023-01-27T23:52:23.052Z,7.55
2023-01-27T23:54:51.409Z,6.57
2023-01-27T23:57:19.841Z,4.85
2023-01-27T23:59:48.204Z,5.15
